Weather at Mangkajang Airport

Public forecast

Using degrees Celsius for public forecast. Weather courtesy of forecast.io.

Closest aviation weather report (METAR) to Mangkajang Airport

Closest report is Juwata Airport, 79.9 nm (148.0 km) N. Retrieved 2021/08/01 01:00 UTC (27 minutes ago):

WAQQ 010100Z 25003KT 9999 SCT015 28/24 Q1011

Closest aviation forecast (TAF) to Mangkajang Airport

Closest forecast is Kalimarau Airport, 21.0 nm (38.9 km) WNW. Retrieved 2021-08-01 00:00 UTC (1 hour ago):

TAF WAQT 312300Z 0100/0112 VRB02KT 9999 SCT015